createdAt,value
2022-11-14T00:01:32.761Z,12.32
2022-11-14T00:04:01.201Z,12.40
2022-11-14T00:06:29.628Z,12.75
2022-11-14T00:08:58.006Z,18.38
2022-11-14T00:11:26.408Z,12.07
2022-11-14T00:13:54.759Z,13.52
2022-11-14T00:16:23.147Z,12.80
2022-11-14T00:18:52.742Z,10.48
2022-11-14T00:21:21.103Z,18.20
2022-11-14T00:23:49.442Z,17.85
2022-11-14T00:26:17.912Z,12.23
2022-11-14T00:28:46.258Z,14.48
2022-11-14T00:31:14.621Z,10.38
2022-11-14T00:33:43.041Z,16.52
2022-11-14T00:36:11.496Z,18.02
2022-11-14T00:38:39.902Z,16.67
2022-11-14T00:41:08.328Z,12.85
2022-11-14T00:43:36.739Z,12.50
2022-11-14T00:46:05.511Z,12.45
2022-11-14T00:48:34.054Z,15.85
2022-11-14T00:51:02.475Z,13.95
2022-11-14T00:53:30.997Z,11.80
2022-11-14T00:55:59.441Z,14.13
2022-11-14T00:58:28.265Z,13.23
2022-11-14T01:00:57.079Z,15.88
2022-11-14T01:03:25.541Z,13.82
2022-11-14T01:05:54.044Z,14.77
2022-11-14T01:08:22.621Z,20.98
2022-11-14T01:10:51.682Z,11.73
2022-11-14T01:13:20.116Z,13.32
2022-11-14T01:15:49.657Z,14.65
2022-11-14T01:18:20.351Z,11.27
2022-11-14T01:20:49.217Z,15.20
2022-11-14T01:23:18.001Z,13.68
2022-11-14T01:25:46.778Z,10.13
2022-11-14T01:28:18.543Z,13.20
2022-11-14T01:30:47.044Z,18.83
2022-11-14T01:33:15.534Z,12.77
2022-11-14T01:35:43.953Z,20.40
2022-11-14T01:38:14.858Z,12.93
2022-11-14T01:40:45.471Z,14.48
2022-11-14T01:43:16.701Z,12.50
2022-11-14T01:46:01.186Z,10.20
2022-11-14T01:48:55.837Z,14.85
2022-11-14T01:51:27.316Z,12.65
2022-11-14T01:53:58.788Z,16.13
2022-11-14T01:56:33.958Z,10.88
2022-11-14T01:59:13.696Z,14.10
2022-11-14T02:01:47.187Z,16.58
2022-11-14T02:04:21.346Z,15.10
2022-11-14T02:06:52.015Z,23.88
2022-11-14T02:09:20.767Z,19.25
2022-11-14T02:11:50.090Z,12.98
2022-11-14T02:14:18.894Z,10.40
2022-11-14T02:17:01.097Z,12.13
2022-11-14T02:19:50.223Z,10.07
2022-11-14T02:22:19.626Z,11.23
2022-11-14T02:24:48.080Z,12.30
2022-11-14T02:27:16.696Z,17.92
2022-11-14T02:29:45.300Z,13.35
2022-11-14T02:32:13.811Z,19.13
2022-11-14T02:34:42.354Z,15.60
2022-11-14T02:37:10.813Z,12.18
2022-11-14T02:39:39.340Z,14.38
2022-11-14T02:42:07.823Z,10.68
2022-11-14T02:44:36.257Z,15.18
2022-11-14T02:47:04.822Z,11.95
2022-11-14T02:49:33.253Z,10.60
2022-11-14T02:52:01.681Z,11.90
2022-11-14T02:54:30.405Z,13.35
2022-11-14T02:56:58.944Z,8.35
2022-11-14T02:59:27.368Z,11.57
2022-11-14T03:01:55.823Z,13.70
2022-11-14T03:04:24.405Z,18.00
2022-11-14T03:06:53.043Z,14.70
2022-11-14T03:09:21.624Z,20.05
2022-11-14T03:11:50.054Z,10.23
2022-11-14T03:14:18.516Z,12.60
2022-11-14T03:16:47.040Z,12.38
2022-11-14T03:19:15.516Z,10.60
2022-11-14T03:21:44.073Z,11.77
2022-11-14T03:24:12.702Z,10.82
2022-11-14T03:26:41.164Z,11.95
2022-11-14T03:29:10.017Z,14.10
2022-11-14T03:31:38.434Z,15.95
2022-11-14T03:34:06.992Z,11.10
2022-11-14T03:36:35.460Z,12.40
2022-11-14T03:39:05.128Z,11.77
2022-11-14T03:41:33.566Z,15.95
2022-11-14T03:44:02.105Z,18.00
2022-11-14T03:46:30.537Z,22.10
2022-11-14T03:48:59.053Z,17.05
2022-11-14T03:51:27.550Z,10.52
2022-11-14T03:53:55.991Z,15.82
2022-11-14T03:56:24.512Z,14.85
2022-11-14T03:58:53.297Z,13.32
2022-11-14T04:01:21.725Z,16.40
2022-11-14T04:03:50.133Z,10.60
2022-11-14T04:06:19.644Z,10.05
2022-11-14T04:08:48.031Z,14.95
2022-11-14T04:11:16.527Z,10.07
2022-11-14T04:13:44.930Z,15.98
2022-11-14T04:16:13.479Z,9.70
2022-11-14T04:18:41.863Z,14.48
2022-11-14T04:21:10.430Z,12.68
2022-11-14T04:23:38.931Z,19.30
2022-11-14T04:26:07.435Z,14.02
2022-11-14T04:28:35.817Z,20.45
2022-11-14T04:31:04.301Z,14.07
2022-11-14T04:33:32.800Z,11.25
2022-11-14T04:36:01.270Z,10.57
2022-11-14T04:38:29.833Z,8.95
2022-11-14T04:40:59.442Z,13.07
2022-11-14T04:43:27.813Z,14.73
2022-11-14T04:45:57.150Z,15.55
2022-11-14T04:48:25.512Z,9.00
2022-11-14T04:50:54.029Z,10.52
2022-11-14T04:53:22.484Z,10.70
2022-11-14T04:55:50.834Z,15.48
2022-11-14T04:58:19.343Z,11.63
2022-11-14T05:00:48.781Z,11.77
2022-11-14T05:03:17.248Z,10.13
2022-11-14T05:05:46.498Z,13.23
2022-11-14T05:08:16.114Z,13.23
2022-11-14T05:10:45.400Z,14.95
2022-11-14T05:13:14.195Z,10.23
2022-11-14T05:15:42.552Z,15.10
2022-11-14T05:18:10.944Z,12.93
2022-11-14T05:20:39.355Z,15.63
2022-11-14T05:23:07.880Z,9.48
2022-11-14T05:25:36.235Z,10.10
2022-11-14T05:28:04.623Z,12.85
2022-11-14T05:30:33.112Z,11.75
2022-11-14T05:33:01.539Z,15.35
2022-11-14T05:35:30.078Z,12.05
2022-11-14T05:38:01.236Z,8.57
2022-11-14T05:40:29.667Z,13.55
2022-11-14T05:42:58.127Z,10.95
2022-11-14T05:45:26.548Z,10.30
2022-11-14T05:47:55.006Z,20.02
2022-11-14T05:50:23.628Z,10.20
2022-11-14T05:52:52.050Z,10.90
2022-11-14T05:55:24.541Z,15.35
2022-11-14T05:57:53.607Z,13.05
2022-11-14T06:00:22.007Z,12.35
2022-11-14T06:02:55.148Z,14.50
2022-11-14T06:05:23.743Z,20.25
2022-11-14T06:07:57.719Z,21.55
2022-11-14T06:10:26.349Z,11.82
2022-11-14T06:12:54.721Z,12.02
2022-11-14T06:15:23.087Z,10.57
2022-11-14T06:17:54.904Z,16.00
2022-11-14T06:20:23.229Z,13.57
2022-11-14T06:22:54.784Z,10.35
2022-11-14T06:25:23.191Z,11.10
2022-11-14T06:27:51.599Z,11.93
2022-11-14T06:30:19.947Z,15.07
2022-11-14T06:32:48.370Z,13.23
2022-11-14T06:35:16.737Z,9.77
2022-11-14T06:37:45.130Z,18.30
2022-11-14T06:40:13.782Z,9.95
2022-11-14T06:42:42.257Z,15.48
2022-11-14T06:45:10.909Z,15.52
2022-11-14T06:47:39.391Z,18.80
2022-11-14T06:50:08.469Z,15.30
2022-11-14T06:52:37.160Z,11.27
2022-11-14T06:55:06.161Z,18.25
2022-11-14T06:57:34.586Z,13.52
2022-11-14T07:00:04.570Z,10.77
2022-11-14T07:02:33.210Z,12.85
2022-11-14T07:05:01.660Z,11.35
2022-11-14T07:07:30.862Z,17.75
2022-11-14T07:09:59.250Z,11.98
2022-11-14T07:12:29.065Z,13.48
2022-11-14T07:14:57.491Z,10.00
2022-11-14T07:17:29.965Z,12.00
2022-11-14T07:19:59.756Z,11.50
2022-11-14T07:22:28.247Z,16.50
2022-11-14T07:24:56.622Z,13.70
2022-11-14T07:27:24.997Z,12.77
2022-11-14T07:29:54.595Z,10.50
2022-11-14T07:32:23.020Z,32.47
2022-11-14T07:34:51.388Z,15.02
2022-11-14T07:37:20.045Z,13.88
2022-11-14T07:39:48.401Z,17.42
2022-11-14T07:42:16.823Z,11.98
2022-11-14T07:44:45.179Z,15.00
2022-11-14T07:47:13.808Z,15.85
2022-11-14T07:49:42.301Z,19.55
2022-11-14T07:52:10.936Z,15.23
2022-11-14T07:54:40.378Z,12.98
2022-11-14T07:57:10.062Z,15.70
2022-11-14T07:59:38.614Z,20.50
2022-11-14T08:02:09.360Z,10.30
2022-11-14T08:04:37.738Z,18.65
2022-11-14T08:07:06.385Z,13.25
2022-11-14T08:09:34.989Z,13.50
2022-11-14T08:12:03.747Z,12.27
2022-11-14T08:14:32.184Z,8.70
2022-11-14T08:17:01.586Z,10.20
2022-11-14T08:19:29.945Z,15.85
2022-11-14T08:21:58.373Z,19.80
2022-11-14T08:24:26.760Z,15.82
2022-11-14T08:27:01.990Z,19.30
2022-11-14T08:29:30.570Z,20.02
2022-11-14T08:32:00.239Z,9.45
2022-11-14T08:34:29.597Z,10.88
2022-11-14T08:36:58.422Z,10.88
2022-11-14T08:39:27.017Z,13.68
2022-11-14T08:41:55.559Z,11.27
2022-11-14T08:44:24.107Z,16.73
2022-11-14T08:46:52.484Z,11.75
2022-11-14T08:49:26.972Z,18.67
2022-11-14T08:51:56.458Z,8.95
2022-11-14T08:54:24.866Z,12.60
2022-11-14T08:56:53.474Z,10.30
2022-11-14T08:59:22.148Z,19.90
2022-11-14T09:01:50.577Z,10.98
2022-11-14T09:04:19.007Z,14.10
2022-11-14T09:06:47.739Z,19.42
2022-11-14T09:09:16.304Z,14.70
2022-11-14T09:11:44.744Z,10.23
2022-11-14T09:14:13.291Z,27.42
2022-11-14T09:16:41.776Z,14.23
2022-11-14T09:19:10.144Z,11.63
2022-11-14T09:21:39.676Z,20.17
2022-11-14T09:24:08.426Z,18.55
2022-11-14T09:26:36.921Z,17.17
2022-11-14T09:29:06.532Z,19.52
2022-11-14T09:31:34.939Z,14.13
2022-11-14T09:34:03.319Z,12.57
2022-11-14T09:36:31.848Z,11.32
2022-11-14T09:39:00.326Z,13.75
2022-11-14T09:42:01.018Z,13.90
2022-11-14T09:44:40.503Z,14.90
2022-11-14T09:47:21.023Z,13.43
2022-11-14T09:49:54.629Z,20.15
2022-11-14T09:52:25.968Z,14.38
2022-11-14T09:55:01.233Z,14.93
2022-11-14T09:57:30.447Z,14.77
2022-11-14T09:59:58.959Z,16.33
2022-11-14T10:02:44.802Z,16.48
2022-11-14T10:05:22.502Z,24.13
2022-11-14T10:07:50.906Z,16.13
2022-11-14T10:10:28.876Z,10.57
2022-11-14T10:13:03.380Z,11.45
2022-11-14T10:15:40.631Z,20.02
2022-11-14T10:18:17.788Z,12.27
2022-11-14T10:20:54.942Z,14.73
2022-11-14T10:23:38.793Z,12.07
2022-11-14T10:26:31.329Z,12.65
2022-11-14T10:31:58.004Z,19.63
2022-11-14T10:34:45.297Z,15.63
2022-11-14T10:37:29.790Z,13.20
2022-11-14T10:40:14.334Z,14.48
2022-11-14T10:42:47.657Z,18.55
2022-11-14T10:45:33.369Z,12.68
2022-11-14T10:48:10.411Z,14.52
2022-11-14T10:51:14.424Z,16.45
2022-11-14T10:54:01.252Z,23.98
2022-11-14T10:56:30.685Z,21.48
2022-11-14T10:58:59.078Z,21.85
2022-11-14T11:01:36.894Z,17.75
2022-11-14T11:04:36.861Z,19.63
2022-11-14T11:07:09.275Z,18.15
2022-11-14T11:09:58.902Z,18.90
2022-11-14T11:12:36.622Z,20.80
2022-11-14T11:15:26.503Z,18.60
2022-11-14T11:17:57.467Z,24.95
2022-11-14T11:20:26.541Z,23.27
2022-11-14T11:23:09.749Z,17.08
2022-11-14T11:25:40.196Z,15.32
2022-11-14T11:28:22.184Z,13.93
2022-11-14T11:31:01.974Z,28.60
2022-11-14T11:33:35.440Z,29.15
2022-11-14T11:36:12.029Z,18.40
2022-11-14T11:38:41.223Z,34.20
2022-11-14T11:42:07.174Z,21.38
2022-11-14T11:44:25.230Z,24.95
2022-11-14T11:46:57.565Z,21.23
2022-11-14T11:49:40.813Z,21.15
2022-11-14T11:52:51.256Z,20.27
2022-11-14T11:55:42.892Z,23.75
2022-11-14T11:58:14.279Z,20.50
2022-11-14T12:00:42.809Z,26.98
2022-11-14T12:03:20.232Z,23.88
2022-11-14T12:06:12.229Z,19.33
2022-11-14T12:09:11.840Z,26.40
2022-11-14T12:11:46.922Z,20.77
2022-11-14T12:14:34.046Z,28.92
2022-11-14T12:17:35.138Z,21.92
2022-11-14T12:20:30.772Z,19.90
2022-11-14T12:23:24.323Z,20.80
2022-11-14T12:26:04.886Z,27.55
2022-11-14T12:29:07.725Z,21.65
2022-11-14T12:31:39.118Z,22.85
2022-11-14T12:34:23.463Z,30.52
2022-11-14T12:36:52.173Z,25.33
2022-11-14T12:39:30.929Z,26.25
2022-11-14T12:42:07.783Z,27.13
2022-11-14T12:44:39.568Z,28.67
2022-11-14T12:47:10.158Z,25.13
2022-11-14T12:49:58.575Z,30.77
2022-11-14T12:52:51.313Z,28.02
2022-11-14T12:55:25.909Z,32.78
2022-11-14T12:58:18.484Z,33.42
2022-11-14T13:03:29.686Z,35.13
2022-11-14T13:06:01.519Z,30.80
2022-11-14T13:08:36.103Z,60.72
2022-11-14T13:11:51.256Z,25.10
2022-11-14T13:14:40.219Z,18.27
2022-11-14T13:17:36.321Z,26.13
2022-11-14T13:20:45.034Z,18.20
2022-11-14T13:23:42.753Z,15.65
2022-11-14T13:26:11.167Z,19.00
2022-11-14T13:28:52.479Z,20.85
2022-11-14T13:31:44.203Z,11.32
2022-11-14T13:34:33.046Z,16.00
2022-11-14T13:37:38.544Z,13.98
2022-11-14T13:40:13.051Z,10.90
2022-11-14T13:43:02.965Z,21.23
2022-11-14T13:45:35.444Z,16.90
2022-11-14T13:48:28.081Z,10.70
2022-11-14T13:51:21.496Z,12.50
2022-11-14T13:53:50.809Z,13.13
2022-11-14T13:56:37.925Z,11.63
2022-11-14T13:59:09.435Z,10.82
2022-11-14T14:01:48.984Z,11.35
2022-11-14T14:04:34.428Z,11.98
2022-11-14T14:07:30.360Z,13.45
2022-11-14T14:10:34.989Z,14.35
2022-11-14T14:13:34.526Z,13.32
2022-11-14T14:16:15.265Z,13.20
2022-11-14T14:18:44.298Z,14.02
2022-11-14T14:21:27.862Z,14.32
2022-11-14T14:24:24.085Z,13.77
2022-11-14T14:27:04.032Z,18.65
2022-11-14T14:29:53.912Z,14.77
2022-11-14T14:32:24.330Z,18.92
2022-11-14T14:34:56.886Z,15.38
2022-11-14T14:37:27.911Z,15.07
2022-11-14T14:40:01.566Z,13.32
2022-11-14T14:42:39.383Z,15.60
2022-11-14T14:45:28.914Z,19.42
2022-11-14T14:48:06.635Z,17.73
2022-11-14T14:51:03.182Z,22.35
2022-11-14T14:53:36.556Z,24.40
2022-11-14T14:56:16.848Z,16.75
2022-11-14T14:58:45.321Z,18.45
2022-11-14T15:01:17.166Z,17.75
2022-11-14T15:03:52.845Z,16.38
2022-11-14T15:06:29.902Z,16.35
2022-11-14T15:09:07.790Z,17.20
2022-11-14T15:11:39.729Z,22.63
2022-11-14T15:14:16.336Z,18.13
2022-11-14T15:16:46.880Z,15.30
2022-11-14T15:19:18.968Z,21.08
2022-11-14T15:22:05.383Z,16.75
2022-11-14T15:24:33.805Z,20.90
2022-11-14T15:27:12.661Z,17.95
2022-11-14T15:29:50.237Z,15.73
2022-11-14T15:32:22.157Z,18.70
2022-11-14T15:35:08.953Z,15.18
2022-11-14T15:37:37.595Z,18.55
2022-11-14T15:40:23.992Z,22.38
2022-11-14T15:42:52.492Z,16.33
2022-11-14T15:45:22.921Z,10.82
2022-11-14T15:48:05.121Z,12.30
2022-11-14T15:50:35.401Z,8.82
2022-11-14T15:53:06.595Z,19.65
2022-11-14T15:55:35.968Z,16.27
2022-11-14T15:58:27.040Z,15.07
2022-11-14T16:00:56.748Z,16.08
2022-11-14T16:03:25.221Z,13.63
2022-11-14T16:05:53.631Z,7.72
2022-11-14T16:08:23.200Z,12.40
2022-11-14T16:10:51.599Z,16.58
2022-11-14T16:13:21.280Z,11.00
2022-11-14T16:15:49.674Z,9.85
2022-11-14T16:18:18.453Z,8.65
2022-11-14T16:20:47.120Z,13.55
2022-11-14T16:23:15.662Z,8.63
2022-11-14T16:25:44.792Z,7.93
2022-11-14T16:28:13.386Z,9.18
2022-11-14T16:30:41.861Z,7.70
2022-11-14T16:33:11.404Z,10.55
2022-11-14T16:35:39.839Z,12.38
2022-11-14T16:38:12.262Z,14.25
2022-11-14T16:40:44.164Z,9.02
2022-11-14T16:43:14.221Z,7.88
2022-11-14T16:45:42.926Z,13.00
2022-11-14T16:48:11.409Z,9.10
2022-11-14T16:50:39.785Z,11.90
2022-11-14T16:53:08.246Z,12.25
2022-11-14T16:55:36.667Z,9.63
2022-11-14T16:58:05.113Z,8.63
2022-11-14T17:00:33.883Z,12.98
2022-11-14T17:03:02.326Z,12.48
2022-11-14T17:05:30.672Z,9.73
2022-11-14T17:07:59.032Z,12.52
2022-11-14T17:10:27.464Z,11.68
2022-11-14T17:12:55.851Z,12.18
2022-11-14T17:15:24.163Z,11.15
2022-11-14T17:17:52.759Z,10.07
2022-11-14T17:20:22.133Z,17.33
2022-11-14T17:22:50.491Z,11.65
2022-11-14T17:25:19.177Z,10.77
2022-11-14T17:27:50.550Z,8.48
2022-11-14T17:30:20.060Z,17.63
2022-11-14T17:32:51.371Z,13.48
2022-11-14T17:35:23.630Z,11.02
2022-11-14T17:37:56.201Z,8.57
2022-11-14T17:40:27.599Z,13.43
2022-11-14T17:42:56.018Z,20.13
2022-11-14T17:45:24.423Z,14.75
2022-11-14T17:47:52.798Z,12.52
2022-11-14T17:50:22.356Z,15.43
2022-11-14T17:52:50.766Z,14.60
2022-11-14T17:55:19.168Z,14.93
2022-11-14T17:57:47.483Z,10.50
2022-11-14T18:00:16.457Z,16.15
2022-11-14T18:02:44.895Z,10.65
2022-11-14T18:05:13.329Z,11.77
2022-11-14T18:07:41.762Z,11.55
2022-11-14T18:10:10.234Z,16.63
2022-11-14T18:12:38.725Z,28.23
2022-11-14T18:15:07.552Z,15.90
2022-11-14T18:17:35.996Z,15.73
2022-11-14T18:20:04.910Z,10.38
2022-11-14T18:22:33.395Z,12.00
2022-11-14T18:25:07.516Z,13.63
2022-11-14T18:27:36.813Z,13.75
2022-11-14T18:30:20.130Z,12.35
2022-11-14T18:32:54.074Z,12.85
2022-11-14T18:35:28.803Z,12.88
2022-11-14T18:37:57.735Z,12.15
2022-11-14T18:40:26.215Z,11.80
2022-11-14T18:42:56.196Z,16.80
2022-11-14T18:45:24.945Z,14.32
2022-11-14T18:47:53.305Z,15.82
2022-11-14T18:50:21.725Z,14.60
2022-11-14T18:52:50.289Z,11.77
2022-11-14T18:55:18.689Z,18.80
2022-11-14T18:57:47.049Z,17.70
2022-11-14T19:00:17.182Z,13.32
2022-11-14T19:02:51.905Z,18.13
2022-11-14T19:05:20.370Z,12.00
2022-11-14T19:07:52.069Z,17.55
2022-11-14T19:10:20.579Z,19.80
2022-11-14T19:12:49.040Z,15.73
2022-11-14T19:15:17.728Z,17.45
2022-11-14T19:17:47.576Z,11.57
2022-11-14T19:20:17.324Z,16.83
2022-11-14T19:22:46.911Z,18.30
2022-11-14T19:25:15.518Z,18.40
2022-11-14T19:27:43.993Z,16.95
2022-11-14T19:30:13.251Z,12.50
2022-11-14T19:32:42.694Z,18.55
2022-11-14T19:35:20.101Z,21.90
2022-11-14T19:37:49.057Z,19.13
2022-11-14T19:40:17.613Z,26.67
2022-11-14T19:42:45.955Z,24.27
2022-11-14T19:45:14.512Z,20.45
2022-11-14T19:47:42.902Z,21.75
2022-11-14T19:50:11.416Z,19.40
2022-11-14T19:52:40.898Z,53.60
2022-11-14T19:55:09.373Z,94.55
2022-11-14T19:57:37.864Z,182.90
2022-11-14T20:00:07.152Z,29.42
2022-11-14T20:02:39.599Z,20.20
2022-11-14T20:05:09.507Z,19.10
2022-11-14T20:07:37.949Z,22.98
2022-11-14T20:10:08.001Z,18.90
2022-11-14T20:12:36.782Z,21.45
2022-11-14T20:15:05.892Z,24.80
2022-11-14T20:17:34.318Z,25.65
2022-11-14T20:20:02.757Z,34.50
2022-11-14T20:22:31.347Z,25.10
2022-11-14T20:24:59.854Z,15.85
2022-11-14T20:27:28.597Z,27.88
2022-11-14T20:29:57.208Z,26.30
2022-11-14T20:32:25.709Z,31.58
2022-11-14T20:34:54.356Z,37.55
2022-11-14T20:37:22.870Z,39.03
2022-11-14T20:39:51.251Z,42.75
2022-11-14T20:42:19.776Z,50.60
2022-11-14T20:44:48.208Z,33.70
2022-11-14T20:47:18.411Z,27.77
2022-11-14T20:49:47.469Z,25.20
2022-11-14T20:52:16.052Z,31.73
2022-11-14T20:54:44.539Z,24.40
2022-11-14T20:57:13.096Z,33.70
2022-11-14T20:59:41.492Z,20.58
2022-11-14T21:02:11.806Z,20.95
2022-11-14T21:04:41.305Z,30.55
2022-11-14T21:07:09.781Z,17.58
2022-11-14T21:09:38.246Z,21.50
2022-11-14T21:12:06.756Z,23.08
2022-11-14T21:14:35.189Z,15.80
2022-11-14T21:17:04.723Z,18.77
2022-11-14T21:19:33.210Z,16.50
2022-11-14T21:22:01.622Z,25.02
2022-11-14T21:24:30.121Z,27.90
2022-11-14T21:26:58.570Z,112.47
2022-11-14T21:29:27.351Z,126.80
2022-11-14T21:31:55.756Z,60.35
2022-11-14T21:34:24.196Z,65.38
2022-11-14T21:36:52.609Z,28.20
2022-11-14T21:39:21.070Z,45.38
2022-11-14T21:41:49.458Z,20.10
2022-11-14T21:44:18.126Z,46.70
2022-11-14T21:46:48.517Z,34.58
2022-11-14T21:49:17.159Z,76.22
2022-11-14T21:51:45.790Z,44.22
2022-11-14T21:54:14.211Z,65.05
2022-11-14T21:56:42.787Z,75.05
2022-11-14T21:59:18.301Z,144.63
2022-11-14T22:02:09.849Z,31.13
2022-11-14T22:04:38.286Z,35.67
2022-11-14T22:07:08.552Z,262.17
2022-11-14T22:09:42.594Z,120.30
2022-11-14T22:12:13.531Z,260.20
2022-11-14T22:14:42.024Z,228.05
2022-11-14T22:17:10.427Z,52.63
2022-11-14T22:19:39.008Z,71.85
2022-11-14T22:22:08.470Z,115.68
2022-11-14T22:24:37.051Z,42.15
2022-11-14T22:27:05.537Z,25.67
2022-11-14T22:29:34.072Z,48.70
2022-11-14T22:32:02.522Z,86.97
2022-11-14T22:34:31.909Z,139.73
2022-11-14T22:37:00.362Z,30.63
2022-11-14T22:39:28.741Z,76.93
2022-11-14T22:41:57.088Z,48.08
2022-11-14T22:44:25.469Z,150.40
2022-11-14T22:46:53.940Z,44.85
2022-11-14T22:49:22.481Z,65.88
2022-11-14T22:51:50.999Z,129.98
2022-11-14T22:54:19.512Z,44.72
2022-11-14T22:56:48.072Z,168.00
2022-11-14T22:59:24.198Z,88.30
2022-11-14T23:01:55.673Z,55.05
2022-11-14T23:04:24.975Z,33.55
2022-11-14T23:06:54.632Z,43.40
2022-11-14T23:09:23.106Z,48.78
2022-11-14T23:11:51.490Z,101.93
2022-11-14T23:14:19.964Z,107.95
2022-11-14T23:16:48.334Z,42.47
2022-11-14T23:19:16.690Z,27.65
2022-11-14T23:21:45.020Z,59.08
2022-11-14T23:24:14.743Z,81.28
2022-11-14T23:26:43.311Z,112.50
2022-11-14T23:29:14.027Z,109.78
2022-11-14T23:31:42.459Z,50.38
2022-11-14T23:34:10.892Z,91.60
2022-11-14T23:36:39.325Z,44.40
2022-11-14T23:39:07.778Z,28.02
2022-11-14T23:41:36.256Z,26.05
2022-11-14T23:44:04.934Z,28.63
2022-11-14T23:46:33.354Z,24.13
2022-11-14T23:49:01.752Z,27.52
2022-11-14T23:51:30.368Z,29.23
2022-11-14T23:53:58.818Z,21.38
2022-11-14T23:56:27.208Z,35.88
2022-11-14T23:58:55.629Z,24.27
